createdAt,value
2022-10-17T00:00:32.808Z,21.50
2022-10-17T00:03:20.472Z,21.50
2022-10-17T00:06:11.648Z,21.50
2022-10-17T00:08:58.587Z,21.50
2022-10-17T00:11:45.925Z,21.50
2022-10-17T00:14:33.216Z,21.50
2022-10-17T00:17:20.227Z,21.50
2022-10-17T00:20:09.702Z,21.50
2022-10-17T00:22:58.739Z,21.40
2022-10-17T00:25:45.976Z,21.50
2022-10-17T00:28:33.515Z,21.50
2022-10-17T00:31:22.374Z,21.40
2022-10-17T00:34:09.729Z,21.50
2022-10-17T00:36:56.910Z,21.50
2022-10-17T00:39:46.517Z,21.40
2022-10-17T00:42:33.976Z,21.40
2022-10-17T00:45:25.149Z,21.40
2022-10-17T00:48:13.496Z,21.40
2022-10-17T00:51:00.763Z,21.40
2022-10-17T00:53:48.556Z,21.40
2022-10-17T00:56:37.011Z,21.40
2022-10-17T00:59:26.303Z,21.40
2022-10-17T01:02:17.593Z,21.40
2022-10-17T01:05:06.268Z,21.40
2022-10-17T01:07:56.157Z,21.40
2022-10-17T01:10:55.750Z,21.40
2022-10-17T01:13:53.295Z,21.40
2022-10-17T01:16:52.109Z,21.40
2022-10-17T01:20:24.977Z,21.40
2022-10-17T01:23:46.944Z,21.30
2022-10-17T01:26:56.473Z,21.40
2022-10-17T01:30:01.500Z,21.40
2022-10-17T01:32:55.872Z,21.40
2022-10-17T01:35:49.069Z,21.40
2022-10-17T01:38:45.749Z,21.30
2022-10-17T01:41:41.822Z,21.40
2022-10-17T01:44:34.603Z,21.40
2022-10-17T01:47:26.248Z,21.30
2022-10-17T01:50:20.697Z,21.30
2022-10-17T01:53:14.647Z,21.40
2022-10-17T01:56:05.222Z,21.40
2022-10-17T01:58:57.635Z,21.30
2022-10-17T02:01:47.971Z,21.30
2022-10-17T02:04:36.656Z,21.30
2022-10-17T02:07:26.416Z,21.30
2022-10-17T02:10:21.665Z,21.30
2022-10-17T02:13:18.656Z,21.30
2022-10-17T02:16:19.319Z,21.30
2022-10-17T02:19:27.383Z,21.30
2022-10-17T02:22:28.804Z,21.30
2022-10-17T02:25:27.727Z,21.30
2022-10-17T02:28:22.885Z,21.30
2022-10-17T02:31:15.601Z,21.20
2022-10-17T02:34:09.182Z,21.20
2022-10-17T02:37:00.051Z,21.20
2022-10-17T02:39:49.635Z,21.20
2022-10-17T02:42:37.344Z,21.20
2022-10-17T02:45:28.671Z,21.20
2022-10-17T02:48:26.238Z,21.20
2022-10-17T02:51:23.922Z,21.20
2022-10-17T02:54:18.822Z,21.20
2022-10-17T02:57:15.568Z,21.20
2022-10-17T03:00:08.774Z,21.20
2022-10-17T03:02:56.389Z,21.10
2022-10-17T03:05:43.736Z,21.20
2022-10-17T03:08:30.957Z,21.20
2022-10-17T03:11:17.923Z,21.10
2022-10-17T03:14:06.525Z,21.10
2022-10-17T03:16:53.988Z,21.10
2022-10-17T03:19:41.355Z,21.10
2022-10-17T03:22:29.858Z,21.10
2022-10-17T03:25:20.712Z,21.00
2022-10-17T03:28:10.701Z,21.10
2022-10-17T03:30:59.380Z,21.00
2022-10-17T03:33:47.408Z,21.00
2022-10-17T03:36:34.828Z,21.00
2022-10-17T03:39:21.853Z,21.00
2022-10-17T03:42:08.925Z,21.00
2022-10-17T03:44:56.944Z,21.00
2022-10-17T03:47:45.229Z,21.00
2022-10-17T03:50:32.281Z,21.00
2022-10-17T03:53:20.724Z,21.00
2022-10-17T03:56:13.870Z,21.00
2022-10-17T03:59:01.307Z,21.00
2022-10-17T04:01:50.792Z,21.00
2022-10-17T04:04:40.194Z,21.00
2022-10-17T04:10:19.309Z,21.00
2022-10-17T04:13:07.587Z,21.00
2022-10-17T04:15:58.453Z,21.00
2022-10-17T04:18:46.134Z,21.00
2022-10-17T04:21:34.511Z,21.00
2022-10-17T04:24:26.512Z,21.00
2022-10-17T04:27:13.625Z,21.00
2022-10-17T04:30:05.419Z,20.90
2022-10-17T04:32:54.237Z,21.00
2022-10-17T04:35:42.839Z,21.00
2022-10-17T04:38:32.763Z,20.90
2022-10-17T04:41:20.621Z,21.00
2022-10-17T04:44:08.083Z,20.90
2022-10-17T04:46:59.186Z,20.90
2022-10-17T04:49:47.588Z,20.90
2022-10-17T04:52:37.544Z,20.90
2022-10-17T04:55:25.839Z,20.90
2022-10-17T04:58:14.512Z,20.90
2022-10-17T05:01:06.173Z,20.90
2022-10-17T05:03:54.479Z,20.90
2022-10-17T05:06:42.384Z,20.80
2022-10-17T05:09:50.571Z,20.80
2022-10-17T05:12:40.417Z,20.80
2022-10-17T05:15:27.870Z,20.80
2022-10-17T05:18:16.518Z,20.80
2022-10-17T05:21:05.748Z,20.80
2022-10-17T05:23:54.417Z,20.80
2022-10-17T05:26:42.752Z,20.80
2022-10-17T05:29:31.503Z,20.70
2022-10-17T05:32:29.115Z,20.70
2022-10-17T05:35:16.505Z,20.70
2022-10-17T05:38:03.714Z,20.70
2022-10-17T05:40:53.646Z,20.80
2022-10-17T05:43:41.051Z,20.70
2022-10-17T05:46:29.378Z,20.70
2022-10-17T05:49:31.880Z,20.70
2022-10-17T05:52:20.746Z,20.70
2022-10-17T05:55:22.502Z,20.70
2022-10-17T05:58:17.665Z,20.70
2022-10-17T06:01:13.616Z,20.70
2022-10-17T06:03:49.784Z,20.70
2022-10-17T06:06:19.990Z,20.60
2022-10-17T06:08:53.074Z,20.60
2022-10-17T06:11:27.298Z,20.60
2022-10-17T06:13:56.018Z,20.60
2022-10-17T06:16:27.164Z,20.60
2022-10-17T06:18:57.184Z,20.60
2022-10-17T06:21:28.245Z,20.60
2022-10-17T06:24:08.986Z,20.60
2022-10-17T06:26:39.560Z,20.60
2022-10-17T06:29:10.173Z,20.70
2022-10-17T06:31:45.171Z,20.60
2022-10-17T06:34:15.248Z,20.60
2022-10-17T06:36:44.563Z,20.60
2022-10-17T06:39:13.732Z,20.60
2022-10-17T06:41:59.068Z,20.70
2022-10-17T06:44:41.613Z,20.70
2022-10-17T06:47:39.836Z,20.70
2022-10-17T06:50:28.233Z,20.70
2022-10-17T06:53:14.644Z,20.70
2022-10-17T06:56:04.069Z,20.70
2022-10-17T06:58:53.062Z,20.70
2022-10-17T07:01:34.339Z,20.70
2022-10-17T07:04:05.505Z,20.70
2022-10-17T07:06:37.238Z,20.70
2022-10-17T07:09:11.502Z,20.70
2022-10-17T07:11:40.329Z,20.70
2022-10-17T07:14:09.303Z,20.70
2022-10-17T07:16:38.220Z,20.70
2022-10-17T07:19:17.258Z,20.70
2022-10-17T07:21:47.314Z,20.80
2022-10-17T07:24:16.229Z,20.80
2022-10-17T07:26:49.218Z,20.80
2022-10-17T07:29:18.569Z,20.80
2022-10-17T07:32:09.837Z,20.80
2022-10-17T07:34:39.703Z,20.90
2022-10-17T07:37:12.091Z,20.90
2022-10-17T07:39:43.746Z,20.90
2022-10-17T07:42:15.662Z,20.90
2022-10-17T07:44:47.329Z,20.90
2022-10-17T07:47:16.063Z,21.00
2022-10-17T07:49:47.707Z,21.00
2022-10-17T07:52:18.795Z,21.00
2022-10-17T07:54:47.412Z,21.10
2022-10-17T07:57:16.056Z,21.10
2022-10-17T07:59:44.758Z,21.10
2022-10-17T08:02:23.726Z,21.20
2022-10-17T08:04:53.101Z,21.20
2022-10-17T08:07:29.160Z,21.30
2022-10-17T08:10:01.565Z,21.30
2022-10-17T08:12:34.414Z,21.30
2022-10-17T08:15:03.746Z,21.40
2022-10-17T08:17:34.780Z,21.40
2022-10-17T08:20:03.762Z,21.50
2022-10-17T08:22:34.660Z,21.50
2022-10-17T08:25:03.271Z,21.60
2022-10-17T08:27:33.794Z,21.60
2022-10-17T08:30:03.038Z,21.60
2022-10-17T08:32:32.220Z,21.70
2022-10-17T08:35:01.214Z,21.70
2022-10-17T08:37:31.217Z,21.70
2022-10-17T08:40:01.730Z,21.80
2022-10-17T08:43:24.935Z,21.80
2022-10-17T08:46:00.331Z,21.80
2022-10-17T08:48:33.062Z,21.90
2022-10-17T08:51:08.061Z,21.90
2022-10-17T08:53:41.139Z,21.90
2022-10-17T08:56:24.862Z,22.00
2022-10-17T08:59:06.976Z,22.00
2022-10-17T09:01:44.732Z,22.00
2022-10-17T09:04:39.654Z,22.10
2022-10-17T09:07:27.510Z,22.10
2022-10-17T09:10:05.964Z,22.20
2022-10-17T09:12:46.367Z,22.20
2022-10-17T09:15:41.456Z,22.30
2022-10-17T09:18:16.699Z,22.30
2022-10-17T09:20:55.887Z,22.40
2022-10-17T09:23:28.224Z,22.40
2022-10-17T09:26:00.653Z,22.40
2022-10-17T09:28:35.353Z,22.50
2022-10-17T09:31:08.142Z,22.50
2022-10-17T09:33:53.797Z,22.60
2022-10-17T09:36:28.841Z,22.60
2022-10-17T09:39:00.357Z,22.70
2022-10-17T09:41:51.007Z,22.70
2022-10-17T09:44:24.603Z,22.80
2022-10-17T09:47:20.458Z,22.90
2022-10-17T09:49:50.503Z,22.90
2022-10-17T09:52:21.561Z,22.90
2022-10-17T09:54:52.789Z,23.00
2022-10-17T09:57:23.290Z,23.00
2022-10-17T10:00:01.329Z,23.10
2022-10-17T10:02:33.556Z,23.10
2022-10-17T10:05:07.815Z,23.10
2022-10-17T10:07:39.817Z,23.10
2022-10-17T10:10:26.232Z,23.20
2022-10-17T10:13:17.909Z,23.20
2022-10-17T10:15:50.152Z,23.30
2022-10-17T10:18:35.715Z,23.20
2022-10-17T10:21:09.217Z,23.30
2022-10-17T10:23:41.089Z,23.30
2022-10-17T10:26:29.414Z,23.30
2022-10-17T10:29:01.676Z,23.30
2022-10-17T10:31:36.112Z,23.30
2022-10-17T10:34:23.459Z,23.30
2022-10-17T10:37:00.014Z,23.30
2022-10-17T10:39:37.419Z,23.30
2022-10-17T10:42:13.437Z,23.30
2022-10-17T10:44:42.904Z,23.30
2022-10-17T10:47:22.454Z,23.40
2022-10-17T10:49:54.648Z,23.40
2022-10-17T10:52:33.540Z,23.40
2022-10-17T10:55:17.438Z,23.40
2022-10-17T10:57:48.068Z,23.40
2022-10-17T11:00:21.933Z,23.40
2022-10-17T11:03:02.500Z,23.40
2022-10-17T11:05:44.475Z,23.40
2022-10-17T11:08:26.732Z,23.40
2022-10-17T11:11:08.208Z,23.50
2022-10-17T11:13:53.299Z,23.40
2022-10-17T11:16:35.325Z,23.40
2022-10-17T11:19:13.825Z,23.50
2022-10-17T11:21:49.407Z,23.50
2022-10-17T11:24:25.037Z,23.50
2022-10-17T11:26:59.881Z,23.50
2022-10-17T11:29:32.931Z,23.50
2022-10-17T11:32:07.275Z,23.50
2022-10-17T11:34:44.656Z,23.50
2022-10-17T11:37:19.004Z,23.60
2022-10-17T11:39:53.162Z,23.60
2022-10-17T11:42:29.790Z,23.60
2022-10-17T11:45:05.428Z,23.60
2022-10-17T11:47:45.096Z,23.70
2022-10-17T11:53:19.677Z,23.70
2022-10-17T11:55:49.584Z,23.70
2022-10-17T11:58:36.001Z,23.80
2022-10-17T12:01:22.920Z,23.80
2022-10-17T12:04:16.134Z,23.80
2022-10-17T12:07:01.066Z,23.80
2022-10-17T12:09:42.056Z,23.90
2022-10-17T12:12:11.262Z,23.90
2022-10-17T12:14:45.674Z,23.90
2022-10-17T12:17:38.916Z,23.80
2022-10-17T12:20:41.389Z,23.80
2022-10-17T12:23:28.431Z,23.90
2022-10-17T12:26:03.315Z,23.90
2022-10-17T12:28:34.526Z,23.90
2022-10-17T12:31:10.080Z,23.90
2022-10-17T12:33:49.804Z,23.90
2022-10-17T12:36:48.426Z,23.90
2022-10-17T12:39:52.511Z,23.90
2022-10-17T12:42:50.240Z,23.90
2022-10-17T12:45:51.590Z,23.90
2022-10-17T12:49:02.254Z,23.90
2022-10-17T12:51:35.821Z,24.00
2022-10-17T12:54:13.338Z,24.00
2022-10-17T12:56:47.270Z,24.00
2022-10-17T12:59:21.811Z,23.90
2022-10-17T13:01:54.948Z,24.00
2022-10-17T13:04:23.937Z,24.00
2022-10-17T13:06:56.151Z,24.00
2022-10-17T13:09:30.371Z,24.00
2022-10-17T13:12:04.583Z,24.00
2022-10-17T13:14:35.401Z,24.00
2022-10-17T13:17:08.038Z,24.00
2022-10-17T13:19:44.890Z,24.00
2022-10-17T13:22:19.672Z,24.00
2022-10-17T13:24:49.961Z,24.00
2022-10-17T13:27:28.596Z,24.00
2022-10-17T13:29:59.240Z,24.00
2022-10-17T13:32:37.080Z,24.00
2022-10-17T13:35:12.248Z,24.00
2022-10-17T13:37:43.171Z,24.00
2022-10-17T13:40:40.847Z,24.00
2022-10-17T13:43:18.730Z,24.00
2022-10-17T13:45:51.436Z,24.00
2022-10-17T13:48:24.496Z,24.00
2022-10-17T13:51:00.360Z,24.00
2022-10-17T13:53:34.260Z,24.00
2022-10-17T13:58:59.242Z,24.00
2022-10-17T14:01:30.796Z,24.00
2022-10-17T14:04:08.955Z,24.00
2022-10-17T14:06:47.566Z,24.00
2022-10-17T14:09:23.478Z,24.00
2022-10-17T14:12:02.608Z,24.00
2022-10-17T14:14:51.711Z,24.00
2022-10-17T14:17:26.382Z,24.00
2022-10-17T14:20:16.109Z,24.00
2022-10-17T14:23:04.488Z,24.00
2022-10-17T14:25:41.349Z,24.00
2022-10-17T14:28:16.929Z,24.00
2022-10-17T14:30:56.685Z,24.00
2022-10-17T14:33:35.457Z,24.00
2022-10-17T14:36:06.644Z,24.00
2022-10-17T14:38:36.055Z,24.00
2022-10-17T14:41:41.909Z,24.00
2022-10-17T14:44:21.860Z,24.00
2022-10-17T14:46:57.857Z,24.00
2022-10-17T14:49:38.736Z,24.00
2022-10-17T14:52:30.910Z,24.00
2022-10-17T14:55:02.418Z,24.00
2022-10-17T14:57:45.323Z,24.00
2022-10-17T15:00:18.502Z,24.00
2022-10-17T15:02:50.076Z,24.00
2022-10-17T15:05:20.213Z,24.00
2022-10-17T15:07:48.778Z,24.00
2022-10-17T15:10:36.006Z,24.00
2022-10-17T15:15:54.209Z,23.90
2022-10-17T15:18:24.183Z,23.90
2022-10-17T15:21:04.479Z,23.90
2022-10-17T15:23:35.337Z,23.90
2022-10-17T15:26:04.324Z,23.90
2022-10-17T15:28:33.197Z,23.90
2022-10-17T15:31:01.845Z,23.90
2022-10-17T15:33:31.997Z,23.90
2022-10-17T15:36:00.728Z,23.90
2022-10-17T15:38:29.391Z,23.90
2022-10-17T15:40:57.986Z,23.80
2022-10-17T15:43:26.629Z,23.80
2022-10-17T15:45:55.527Z,23.80
2022-10-17T15:48:32.386Z,23.80
2022-10-17T15:51:00.989Z,23.80
2022-10-17T15:53:29.640Z,23.80
2022-10-17T15:55:59.491Z,23.80
2022-10-17T15:58:35.844Z,23.80
2022-10-17T16:01:07.312Z,23.80
2022-10-17T16:03:37.390Z,23.80
2022-10-17T16:06:09.542Z,23.80
2022-10-17T16:08:40.811Z,23.80
2022-10-17T16:11:18.714Z,23.80
2022-10-17T16:13:52.645Z,23.80
2022-10-17T16:16:22.227Z,23.80
2022-10-17T16:18:55.384Z,23.80
2022-10-17T16:21:32.226Z,23.80
2022-10-17T16:24:01.645Z,23.70
2022-10-17T16:26:30.908Z,23.80
2022-10-17T16:29:03.108Z,23.70
2022-10-17T16:31:35.931Z,23.70
2022-10-17T16:34:06.884Z,23.70
2022-10-17T16:36:35.611Z,23.70
2022-10-17T16:39:04.483Z,23.70
2022-10-17T16:41:36.057Z,23.70
2022-10-17T16:44:07.847Z,23.70
2022-10-17T16:46:39.075Z,23.70
2022-10-17T16:49:09.588Z,23.70
2022-10-17T16:51:38.250Z,23.70
2022-10-17T16:54:06.945Z,23.70
2022-10-17T16:56:38.740Z,23.70
2022-10-17T16:59:07.449Z,23.60
2022-10-17T17:01:36.121Z,23.60
2022-10-17T17:04:04.952Z,23.60
2022-10-17T17:06:35.153Z,23.60
2022-10-17T17:09:03.846Z,23.60
2022-10-17T17:11:32.797Z,23.60
2022-10-17T17:14:02.460Z,23.60
2022-10-17T17:16:33.359Z,23.60
2022-10-17T17:19:04.637Z,23.50
2022-10-17T17:21:36.173Z,23.50
2022-10-17T17:24:06.184Z,23.50
2022-10-17T17:26:37.100Z,23.50
2022-10-17T17:29:06.199Z,23.50
2022-10-17T17:31:38.365Z,23.50
2022-10-17T17:34:11.100Z,23.50
2022-10-17T17:36:44.569Z,23.50
2022-10-17T17:39:15.570Z,23.40
2022-10-17T17:41:45.750Z,23.40
2022-10-17T17:44:16.976Z,23.40
2022-10-17T17:46:46.473Z,23.40
2022-10-17T17:49:15.603Z,23.40
2022-10-17T17:51:46.787Z,23.40
2022-10-17T17:54:15.911Z,23.30
2022-10-17T17:56:44.640Z,23.30
2022-10-17T17:59:14.584Z,23.30
2022-10-17T18:01:44.534Z,23.30
2022-10-17T18:04:13.615Z,23.30
2022-10-17T18:06:42.320Z,23.30
2022-10-17T18:09:12.511Z,23.20
2022-10-17T18:11:41.992Z,23.20
2022-10-17T18:14:14.039Z,23.20
2022-10-17T18:16:42.905Z,23.20
2022-10-17T18:19:12.924Z,23.10
2022-10-17T18:21:41.565Z,23.10
2022-10-17T18:24:11.666Z,23.10
2022-10-17T18:26:40.332Z,23.10
2022-10-17T18:29:08.933Z,23.10
2022-10-17T18:31:37.551Z,23.10
2022-10-17T18:34:07.052Z,23.00
2022-10-17T18:36:37.789Z,23.00
2022-10-17T18:39:06.987Z,23.00
2022-10-17T18:41:37.086Z,23.00
2022-10-17T18:44:06.383Z,23.00
2022-10-17T18:46:40.871Z,23.00
2022-10-17T18:49:10.477Z,23.00
2022-10-17T18:51:39.356Z,23.00
2022-10-17T18:54:13.146Z,23.00
2022-10-17T18:56:43.563Z,22.90
2022-10-17T18:59:12.286Z,22.90
2022-10-17T19:01:43.629Z,22.90
2022-10-17T19:04:12.852Z,22.90
2022-10-17T19:06:42.230Z,22.90
2022-10-17T19:09:13.722Z,22.90
2022-10-17T19:11:44.017Z,22.90
2022-10-17T19:14:16.991Z,22.90
2022-10-17T19:16:49.437Z,22.90
2022-10-17T19:19:21.102Z,22.90
2022-10-17T19:21:50.806Z,22.90
2022-10-17T19:24:22.775Z,22.90
2022-10-17T19:26:56.353Z,22.90
2022-10-17T19:29:27.496Z,22.90
2022-10-17T19:34:29.651Z,22.80
2022-10-17T19:36:58.402Z,22.80
2022-10-17T19:39:27.019Z,22.80
2022-10-17T19:41:57.095Z,22.80
2022-10-17T19:44:25.990Z,22.80
2022-10-17T19:46:54.607Z,22.80
2022-10-17T19:49:23.168Z,22.80
2022-10-17T19:51:51.901Z,22.70
2022-10-17T19:54:20.525Z,22.80
2022-10-17T19:56:49.295Z,22.80
2022-10-17T19:59:19.566Z,22.70
2022-10-17T20:01:48.536Z,22.70
2022-10-17T20:04:35.679Z,22.70
2022-10-17T20:07:22.962Z,22.70
2022-10-17T20:10:10.822Z,22.70
2022-10-17T20:12:57.942Z,22.70
2022-10-17T20:15:55.553Z,22.70
2022-10-17T20:18:43.831Z,22.70
2022-10-17T20:21:34.954Z,22.70
2022-10-17T20:24:22.539Z,22.70
2022-10-17T20:27:09.757Z,22.70
2022-10-17T20:30:01.632Z,22.70
2022-10-17T20:32:55.220Z,22.60
2022-10-17T20:38:36.275Z,22.60
2022-10-17T20:41:24.404Z,22.60
2022-10-17T20:44:12.736Z,22.60
2022-10-17T20:47:02.728Z,22.60
2022-10-17T20:49:52.206Z,22.60
2022-10-17T20:52:39.095Z,22.60
2022-10-17T20:55:26.352Z,22.60
2022-10-17T20:58:14.757Z,22.60
2022-10-17T21:01:07.813Z,22.60
2022-10-17T21:03:57.153Z,22.60
2022-10-17T21:06:51.287Z,22.60
2022-10-17T21:09:38.438Z,22.60
2022-10-17T21:12:36.670Z,22.50
2022-10-17T21:15:30.103Z,22.60
2022-10-17T21:18:17.469Z,22.60
2022-10-17T21:21:14.586Z,22.50
2022-10-17T21:24:06.664Z,22.50
2022-10-17T21:26:55.684Z,22.50
2022-10-17T21:29:43.362Z,22.50
2022-10-17T21:32:40.350Z,22.50
2022-10-17T21:35:37.642Z,22.50
2022-10-17T21:38:25.007Z,22.50
2022-10-17T21:41:15.421Z,22.50
2022-10-17T21:44:05.528Z,22.50
2022-10-17T21:46:53.597Z,22.50
2022-10-17T21:49:40.698Z,22.50
2022-10-17T21:52:28.286Z,22.50
2022-10-17T21:55:15.781Z,22.50
2022-10-17T21:58:04.704Z,22.50
2022-10-17T22:00:51.931Z,22.50
2022-10-17T22:03:46.682Z,22.50
2022-10-17T22:06:42.739Z,22.50
2022-10-17T22:09:30.210Z,22.50
2022-10-17T22:12:17.324Z,22.50
2022-10-17T22:15:07.150Z,22.50
2022-10-17T22:17:54.441Z,22.40
2022-10-17T22:20:41.440Z,22.40
2022-10-17T22:23:28.984Z,22.40
2022-10-17T22:26:16.461Z,22.40
2022-10-17T22:29:05.411Z,22.40
2022-10-17T22:31:54.122Z,22.40
2022-10-17T22:34:41.197Z,22.40
2022-10-17T22:37:28.953Z,22.40
2022-10-17T22:40:16.703Z,22.40
2022-10-17T22:43:04.118Z,22.40
2022-10-17T22:45:55.111Z,22.40
2022-10-17T22:48:44.355Z,22.40
2022-10-17T22:51:31.502Z,22.40
2022-10-17T22:54:18.834Z,22.40
2022-10-17T22:57:05.976Z,22.40
2022-10-17T22:59:53.272Z,22.30
2022-10-17T23:02:40.924Z,22.40
2022-10-17T23:05:29.660Z,22.30
2022-10-17T23:08:18.937Z,22.40
2022-10-17T23:11:06.491Z,22.40
2022-10-17T23:13:53.921Z,22.30
2022-10-17T23:16:41.040Z,22.30
2022-10-17T23:19:28.086Z,22.30
2022-10-17T23:22:16.639Z,22.30
2022-10-17T23:25:04.689Z,22.30
2022-10-17T23:27:51.981Z,22.30
2022-10-17T23:30:40.428Z,22.30
2022-10-17T23:33:27.566Z,22.20
2022-10-17T23:36:16.678Z,22.30
2022-10-17T23:39:05.458Z,22.20
2022-10-17T23:41:52.545Z,22.20
2022-10-17T23:44:39.546Z,22.20
2022-10-17T23:47:26.931Z,22.20
2022-10-17T23:50:14.036Z,22.20
2022-10-17T23:53:01.196Z,22.20
2022-10-17T23:55:50.109Z,22.20
2022-10-17T23:58:38.453Z,22.20
